createdAt,value
2019-05-14T00:00:16.344Z,132.05
2019-05-14T00:02:43.767Z,132.32
2019-05-14T00:05:12.161Z,131.95
2019-05-14T00:07:41.401Z,134.75
2019-05-14T00:10:08.919Z,132.67
2019-05-14T00:12:36.067Z,132.57
2019-05-14T00:15:03.672Z,133.25
2019-05-14T00:17:31.909Z,133.07
2019-05-14T00:20:07.283Z,133.60
2019-05-14T00:22:28.179Z,132.65
2019-05-14T00:24:55.215Z,133.03
2019-05-14T00:27:22.277Z,132.45
2019-05-14T00:29:51.601Z,131.65
2019-05-14T00:32:21.679Z,131.43
2019-05-14T00:34:51.591Z,131.78
2019-05-14T00:37:18.896Z,132.37
2019-05-14T00:39:45.935Z,133.52
2019-05-14T00:42:13.003Z,133.07
2019-05-14T00:44:53.736Z,132.50
2019-05-14T00:47:11.226Z,133.55
2019-05-14T00:49:38.844Z,132.75
2019-05-14T00:52:05.994Z,132.80
2019-05-14T00:54:33.079Z,132.75
2019-05-14T00:57:01.449Z,131.72
2019-05-14T00:59:28.853Z,131.52
2019-05-14T01:01:55.889Z,132.65
2019-05-14T01:04:22.979Z,132.82
2019-05-14T01:06:51.167Z,133.72
2019-05-14T01:09:18.458Z,133.35
2019-05-14T01:11:45.543Z,132.50
2019-05-14T01:14:12.565Z,132.87
2019-05-14T01:16:42.264Z,133.20
2019-05-14T01:19:08.635Z,132.55
2019-05-14T01:21:35.649Z,132.35
2019-05-14T01:24:02.780Z,132.80
2019-05-14T01:26:31.195Z,131.07
2019-05-14T01:28:58.230Z,130.80
2019-05-14T01:31:25.248Z,133.15
2019-05-14T01:33:52.312Z,130.95
2019-05-14T01:36:21.348Z,131.30
2019-05-14T01:38:48.268Z,132.25
2019-05-14T01:41:15.306Z,132.12
2019-05-14T01:43:43.381Z,131.15
2019-05-14T01:46:12.171Z,132.12
2019-05-14T01:48:41.596Z,131.63
2019-05-14T01:51:08.516Z,131.18
2019-05-14T01:53:35.569Z,130.25
2019-05-14T01:56:02.607Z,131.90
2019-05-14T01:58:31.178Z,132.18
2019-05-14T02:00:58.459Z,131.30
2019-05-14T02:03:25.520Z,134.12
2019-05-14T02:05:52.546Z,131.05
2019-05-14T02:08:21.462Z,131.10
2019-05-14T02:10:48.671Z,131.07
2019-05-14T02:13:15.688Z,131.03
2019-05-14T02:15:45.827Z,133.03
2019-05-14T02:18:12.911Z,130.55
2019-05-14T02:20:41.431Z,130.57
2019-05-14T02:23:11.992Z,132.60
2019-05-14T02:25:41.222Z,131.50
2019-05-14T02:28:08.535Z,131.78
2019-05-14T02:30:48.047Z,131.93
2019-05-14T02:33:04.635Z,131.95
2019-05-14T02:35:34.165Z,132.12
2019-05-14T02:38:02.313Z,131.47
2019-05-14T02:40:29.750Z,132.00
2019-05-14T02:42:59.275Z,130.40
2019-05-14T02:45:25.865Z,130.52
2019-05-14T02:47:52.948Z,134.12
2019-05-14T02:50:21.804Z,132.80
2019-05-14T02:52:49.599Z,130.90
2019-05-14T02:55:19.402Z,132.90
2019-05-14T02:57:46.179Z,133.35
2019-05-14T03:00:13.237Z,134.15
2019-05-14T03:02:40.599Z,133.65
2019-05-14T03:05:09.879Z,130.30
2019-05-14T03:07:39.301Z,131.47
2019-05-14T03:10:09.642Z,129.57
2019-05-14T03:12:39.293Z,129.35
2019-05-14T03:15:05.461Z,131.12
2019-05-14T03:17:32.733Z,130.43
2019-05-14T03:20:00.248Z,130.18
2019-05-14T03:22:41.616Z,129.87
2019-05-14T03:24:59.638Z,130.07
2019-05-14T03:27:30.474Z,131.18
2019-05-14T03:29:58.545Z,130.80
2019-05-14T03:32:25.268Z,130.30
2019-05-14T03:34:54.579Z,131.97
2019-05-14T03:37:24.054Z,131.10
2019-05-14T03:39:50.713Z,131.47
2019-05-14T03:42:19.362Z,131.78
2019-05-14T03:44:49.008Z,132.43
2019-05-14T03:47:19.708Z,132.87
2019-05-14T03:49:49.683Z,131.63
2019-05-14T03:52:16.090Z,131.90
2019-05-14T03:54:45.158Z,132.10
2019-05-14T03:57:12.242Z,129.35
2019-05-14T03:59:40.345Z,132.37
2019-05-14T04:02:09.799Z,131.97
2019-05-14T04:04:39.358Z,129.97
2019-05-14T04:07:09.849Z,132.45
2019-05-14T04:09:41.523Z,130.37
2019-05-14T04:12:11.347Z,132.50
2019-05-14T04:14:41.594Z,131.75
2019-05-14T04:17:15.044Z,130.32
2019-05-14T04:19:42.152Z,130.57
2019-05-14T04:22:14.387Z,130.67
2019-05-14T04:24:44.560Z,132.43
2019-05-14T04:27:13.411Z,132.22
2019-05-14T04:29:40.948Z,132.85
2019-05-14T04:32:09.583Z,131.05
2019-05-14T04:34:39.762Z,131.60
2019-05-14T04:37:09.715Z,131.67
2019-05-14T04:39:39.280Z,132.32
2019-05-14T04:42:05.643Z,131.30
2019-05-14T04:44:32.688Z,133.00
2019-05-14T04:47:00.199Z,134.55
2019-05-14T04:49:29.193Z,132.37
2019-05-14T04:51:59.584Z,131.22
2019-05-14T04:54:25.521Z,134.63
2019-05-14T04:56:52.570Z,133.93
2019-05-14T04:59:19.835Z,131.85
2019-05-14T05:01:49.277Z,132.78
2019-05-14T05:04:15.851Z,132.60
2019-05-14T05:06:42.910Z,133.10
2019-05-14T05:09:09.969Z,133.10
2019-05-14T05:11:39.359Z,134.43
2019-05-14T05:14:08.828Z,132.32
2019-05-14T05:16:39.049Z,132.47
2019-05-14T05:19:06.873Z,131.97
2019-05-14T05:21:35.048Z,134.10
2019-05-14T05:24:33.324Z,132.87
2019-05-14T05:27:45.321Z,133.27
2019-05-14T05:30:12.880Z,135.20
2019-05-14T05:32:39.915Z,135.65
2019-05-14T05:35:09.482Z,134.43
2019-05-14T05:37:38.438Z,137.03
2019-05-14T05:40:06.049Z,135.52
2019-05-14T05:42:33.083Z,134.67
2019-05-14T05:45:00.152Z,135.90
2019-05-14T05:47:35.257Z,135.07
2019-05-14T05:50:08.665Z,133.30
2019-05-14T05:52:38.704Z,138.50
2019-05-14T05:55:08.966Z,140.03
2019-05-14T05:57:39.004Z,135.65
2019-05-14T06:00:09.449Z,135.43
2019-05-14T06:02:36.620Z,137.30
2019-05-14T06:05:04.053Z,135.72
2019-05-14T06:07:31.762Z,137.10
2019-05-14T06:09:59.046Z,133.82
2019-05-14T06:12:26.170Z,134.52
2019-05-14T06:14:53.270Z,134.63
2019-05-14T06:17:20.328Z,134.27
2019-05-14T06:19:48.642Z,134.78
2019-05-14T06:22:16.003Z,136.92
2019-05-14T06:24:43.016Z,138.00
2019-05-14T06:27:10.059Z,136.32
2019-05-14T06:29:38.234Z,138.03
2019-05-14T06:32:09.291Z,137.15
2019-05-14T06:34:38.283Z,134.45
2019-05-14T06:37:05.440Z,134.57
2019-05-14T06:39:32.505Z,138.32
2019-05-14T06:41:59.569Z,137.45
2019-05-14T06:44:29.248Z,139.28
2019-05-14T06:46:56.109Z,136.22
2019-05-14T06:49:23.128Z,137.65
2019-05-14T06:51:50.704Z,137.62
2019-05-14T06:54:19.755Z,138.03
2019-05-14T06:56:48.818Z,137.68
2019-05-14T06:59:18.193Z,141.07
2019-05-14T07:01:57.867Z,136.60
2019-05-14T07:04:24.816Z,138.35
2019-05-14T07:06:51.907Z,135.90
2019-05-14T07:09:19.019Z,137.00
2019-05-14T07:11:49.196Z,136.65
2019-05-14T07:14:18.795Z,136.68
2019-05-14T07:16:48.280Z,136.95
2019-05-14T07:19:15.934Z,138.32
2019-05-14T07:21:43.596Z,137.90
2019-05-14T07:24:10.610Z,137.47
2019-05-14T07:26:38.863Z,138.22
2019-05-14T07:29:11.256Z,139.72
2019-05-14T07:31:38.467Z,139.57
2019-05-14T07:34:05.394Z,139.35
2019-05-14T07:36:34.322Z,138.65
2019-05-14T07:39:01.390Z,137.50
2019-05-14T07:41:28.854Z,137.75
2019-05-14T07:43:58.497Z,138.65
2019-05-14T07:46:24.996Z,137.50
2019-05-14T07:49:04.508Z,137.68
2019-05-14T07:51:21.060Z,139.62
2019-05-14T07:53:48.994Z,138.37
2019-05-14T07:56:18.498Z,139.65
2019-05-14T07:58:45.289Z,140.68
2019-05-14T08:01:12.333Z,137.92
2019-05-14T08:03:39.436Z,139.32
2019-05-14T08:06:08.285Z,140.88
2019-05-14T08:08:35.444Z,138.90
2019-05-14T08:11:02.822Z,139.95
2019-05-14T08:13:31.060Z,140.10
2019-05-14T08:15:58.494Z,142.15
2019-05-14T08:18:25.784Z,143.00
2019-05-14T08:20:52.881Z,141.53
2019-05-14T08:23:20.156Z,142.18
2019-05-14T08:25:48.130Z,141.95
2019-05-14T08:28:15.436Z,140.75
2019-05-14T08:30:42.505Z,142.10
2019-05-14T08:33:11.389Z,139.77
2019-05-14T08:35:39.581Z,140.40
2019-05-14T08:38:11.329Z,140.12
2019-05-14T08:40:37.718Z,139.03
2019-05-14T08:43:08.636Z,142.53
2019-05-14T08:45:38.953Z,140.37
2019-05-14T08:48:06.191Z,140.43
2019-05-14T08:50:33.281Z,141.95
2019-05-14T08:53:01.063Z,142.53
2019-05-14T08:55:30.615Z,141.95
2019-05-14T08:57:59.707Z,143.15
2019-05-14T09:00:28.648Z,140.62
2019-05-14T09:02:56.049Z,142.15
2019-05-14T09:05:23.111Z,142.30
2019-05-14T09:07:50.233Z,140.43
2019-05-14T09:10:19.245Z,140.97
2019-05-14T09:12:49.159Z,142.47
2019-05-14T09:15:18.441Z,140.75
2019-05-14T09:17:48.132Z,141.03
2019-05-14T09:20:18.685Z,141.82
2019-05-14T09:22:45.443Z,140.35
2019-05-14T09:25:13.041Z,140.45
2019-05-14T09:27:40.098Z,141.82
2019-05-14T09:30:09.760Z,141.80
2019-05-14T09:32:38.845Z,140.80
2019-05-14T09:35:06.136Z,141.53
2019-05-14T09:37:33.283Z,142.15
2019-05-14T09:40:00.576Z,140.47
2019-05-14T09:42:28.654Z,139.82
2019-05-14T09:44:55.892Z,140.28
2019-05-14T09:47:23.541Z,142.50
2019-05-14T09:49:51.010Z,140.32
2019-05-14T09:52:18.774Z,141.65
2019-05-14T09:54:46.076Z,140.47
2019-05-14T09:57:13.627Z,139.77
2019-05-14T09:59:41.549Z,143.68
2019-05-14T10:02:09.163Z,140.57
2019-05-14T10:04:39.256Z,139.20
2019-05-14T10:07:08.720Z,141.30
2019-05-14T10:09:39.034Z,140.52
2019-05-14T10:12:05.527Z,140.07
2019-05-14T10:14:32.560Z,141.07
2019-05-14T10:16:59.629Z,141.32
2019-05-14T10:19:29.438Z,142.70
2019-05-14T10:21:55.899Z,142.22
2019-05-14T10:24:23.016Z,142.15
2019-05-14T10:26:50.196Z,142.53
2019-05-14T10:29:19.134Z,141.85
2019-05-14T10:31:48.585Z,142.47
2019-05-14T10:34:15.954Z,142.68
2019-05-14T10:36:45.422Z,141.95
2019-05-14T10:39:12.480Z,140.90
2019-05-14T10:41:41.398Z,141.35
2019-05-14T10:44:09.562Z,140.00
2019-05-14T10:46:38.459Z,141.30
2019-05-14T10:49:19.631Z,142.32
2019-05-14T10:51:43.617Z,140.70
2019-05-14T10:54:21.018Z,141.77
2019-05-14T10:56:39.634Z,141.28
2019-05-14T10:59:09.283Z,142.55
2019-05-14T11:04:51.900Z,142.13
2019-05-14T11:07:20.208Z,143.52
2019-05-14T11:09:48.728Z,143.87
2019-05-14T11:12:19.153Z,142.77
2019-05-14T11:14:49.425Z,142.50
2019-05-14T11:17:19.420Z,141.80
2019-05-14T11:19:47.854Z,141.60
2019-05-14T11:22:18.458Z,140.95
2019-05-14T11:24:45.091Z,139.95
2019-05-14T11:27:13.419Z,141.68
2019-05-14T11:29:40.653Z,144.43
2019-05-14T11:32:09.614Z,142.47
2019-05-14T11:34:39.750Z,142.80
2019-05-14T11:37:08.654Z,144.20
2019-05-14T11:39:38.217Z,142.13
2019-05-14T11:42:05.515Z,141.77
2019-05-14T11:44:33.207Z,142.07
2019-05-14T11:47:02.576Z,142.03
2019-05-14T11:49:29.273Z,141.05
2019-05-14T11:52:03.772Z,142.03
2019-05-14T11:54:25.371Z,141.62
2019-05-14T11:56:52.453Z,140.97
2019-05-14T11:59:20.719Z,145.82
2019-05-14T12:01:54.858Z,147.15
2019-05-14T12:04:20.622Z,142.32
2019-05-14T12:07:21.113Z,142.75
2019-05-14T12:09:52.454Z,145.47
2019-05-14T12:12:19.681Z,145.45
2019-05-14T12:18:42.010Z,143.85
2019-05-14T12:21:18.153Z,143.62
2019-05-14T12:23:45.362Z,140.95
2019-05-14T12:26:12.874Z,141.97
2019-05-14T12:28:39.915Z,141.70
2019-05-14T12:31:11.176Z,145.12
2019-05-14T12:33:39.674Z,141.37
2019-05-14T12:36:13.334Z,143.90
2019-05-14T12:38:40.635Z,142.50
2019-05-14T12:41:09.253Z,141.73
2019-05-14T12:43:39.353Z,144.93
2019-05-14T12:46:10.346Z,143.28
2019-05-14T12:48:38.925Z,142.32
2019-05-14T12:51:09.030Z,140.65
2019-05-14T12:53:35.434Z,143.80
2019-05-14T12:56:02.403Z,141.95
2019-05-14T12:58:29.382Z,143.35
2019-05-14T13:00:59.147Z,142.70
2019-05-14T13:03:25.339Z,141.12
2019-05-14T13:05:52.320Z,142.90
2019-05-14T13:08:19.478Z,141.75
2019-05-14T13:10:49.131Z,141.28
2019-05-14T13:13:22.351Z,142.50
2019-05-14T13:19:19.129Z,141.15
2019-05-14T13:21:48.924Z,142.15
2019-05-14T13:24:15.017Z,142.60
2019-05-14T13:26:42.002Z,144.22
2019-05-14T13:29:10.861Z,142.37
2019-05-14T13:31:38.369Z,141.05
2019-05-14T13:34:05.375Z,143.37
2019-05-14T13:36:35.661Z,142.22
2019-05-14T13:39:04.366Z,141.62
2019-05-14T13:41:31.525Z,143.57
2019-05-14T13:43:58.973Z,140.22
2019-05-14T13:46:28.692Z,144.60
2019-05-14T13:48:55.226Z,141.43
2019-05-14T13:51:22.621Z,141.73
2019-05-14T13:53:52.529Z,141.55
2019-05-14T13:56:19.516Z,141.00
2019-05-14T13:58:48.914Z,142.18
2019-05-14T14:01:18.974Z,143.45
2019-05-14T14:03:52.414Z,141.30
2019-05-14T14:06:14.731Z,144.65
2019-05-14T14:08:42.534Z,143.13
2019-05-14T14:11:12.672Z,144.28
2019-05-14T14:13:39.219Z,144.30
2019-05-14T14:16:06.744Z,143.22
2019-05-14T14:18:39.477Z,142.62
2019-05-14T14:21:20.413Z,140.95
2019-05-14T14:23:49.514Z,139.72
2019-05-14T14:26:18.447Z,145.20
2019-05-14T14:28:45.287Z,143.22
2019-05-14T14:31:12.284Z,143.52
2019-05-14T14:33:39.627Z,145.68
2019-05-14T14:36:20.209Z,144.60
2019-05-14T14:39:09.758Z,144.68
2019-05-14T14:41:40.869Z,145.47
2019-05-14T14:44:21.034Z,142.75
2019-05-14T14:46:54.372Z,143.65
2019-05-14T14:49:23.323Z,141.47
2019-05-14T14:51:50.274Z,141.60
2019-05-14T14:54:17.673Z,141.82
2019-05-14T14:56:45.344Z,141.22
2019-05-14T14:59:13.581Z,140.52
2019-05-14T15:01:49.847Z,144.37
2019-05-14T15:04:25.667Z,142.90
2019-05-14T15:06:59.752Z,143.68
2019-05-14T15:09:27.993Z,141.60
2019-05-14T15:11:59.949Z,143.52
2019-05-14T15:14:45.149Z,140.85
2019-05-14T15:17:24.407Z,142.03
2019-05-14T15:19:52.394Z,140.75
2019-05-14T15:22:20.980Z,141.68
2019-05-14T15:24:54.598Z,144.15
2019-05-14T15:27:23.247Z,144.02
2019-05-14T15:29:50.543Z,142.28
2019-05-14T15:32:19.695Z,143.80
2019-05-14T15:34:50.327Z,141.40
2019-05-14T15:37:15.719Z,143.93
2019-05-14T15:39:45.425Z,141.12
2019-05-14T15:42:19.086Z,142.28
2019-05-14T15:44:52.183Z,140.55
2019-05-14T15:47:15.085Z,141.37
2019-05-14T15:49:43.798Z,141.10
2019-05-14T15:52:10.910Z,144.47
2019-05-14T15:54:45.886Z,147.05
2019-05-14T15:57:09.144Z,148.10
2019-05-14T15:59:36.134Z,144.53
2019-05-14T16:02:03.182Z,143.97
2019-05-14T16:04:30.283Z,140.82
2019-05-14T16:06:58.632Z,144.40
2019-05-14T16:09:28.689Z,144.35
2019-05-14T16:11:54.862Z,144.15
2019-05-14T16:14:21.923Z,142.70
2019-05-14T16:16:49.001Z,141.55
2019-05-14T16:19:16.029Z,143.55
2019-05-14T16:21:43.061Z,142.82
2019-05-14T16:24:10.000Z,141.97
2019-05-14T16:26:38.198Z,144.47
2019-05-14T16:29:05.161Z,145.95
2019-05-14T16:31:32.610Z,144.68
2019-05-14T16:33:59.730Z,144.85
2019-05-14T16:36:28.857Z,146.82
2019-05-14T16:38:58.263Z,143.05
2019-05-14T16:41:24.597Z,141.97
2019-05-14T16:43:51.741Z,139.28
2019-05-14T16:46:18.689Z,141.47
2019-05-14T16:48:55.329Z,140.40
2019-05-14T16:51:22.905Z,139.97
2019-05-14T16:53:49.899Z,142.43
2019-05-14T17:00:34.590Z,140.92
2019-05-14T17:03:05.006Z,140.30
2019-05-14T17:05:38.132Z,139.82
2019-05-14T17:08:05.715Z,140.35
2019-05-14T17:10:33.399Z,139.52
2019-05-14T17:13:11.289Z,140.40
2019-05-14T17:15:39.393Z,140.32
2019-05-14T17:18:08.898Z,140.95
2019-05-14T17:20:40.208Z,142.10
2019-05-14T17:23:09.093Z,141.40
2019-05-14T17:25:43.090Z,142.43
2019-05-14T17:28:11.243Z,141.00
2019-05-14T17:30:48.982Z,141.37
2019-05-14T17:33:18.483Z,142.65
2019-05-14T17:35:48.215Z,143.57
2019-05-14T17:38:19.134Z,143.87
2019-05-14T17:40:48.674Z,143.68
2019-05-14T17:43:19.016Z,144.00
2019-05-14T17:45:48.269Z,141.65
2019-05-14T17:48:18.202Z,140.80
2019-05-14T17:50:48.949Z,141.10
2019-05-14T17:53:18.293Z,139.35
2019-05-14T17:55:48.192Z,142.07
2019-05-14T17:58:18.855Z,141.47
2019-05-14T18:00:58.013Z,141.90
2019-05-14T18:03:25.597Z,138.47
2019-05-14T18:05:54.733Z,140.95
2019-05-14T18:08:22.093Z,142.35
2019-05-14T18:10:50.982Z,140.85
2019-05-14T18:13:18.254Z,140.45
2019-05-14T18:15:45.581Z,139.03
2019-05-14T18:18:12.739Z,140.40
2019-05-14T18:20:39.765Z,141.32
2019-05-14T18:23:13.492Z,142.07
2019-05-14T18:26:01.040Z,141.12
2019-05-14T18:28:18.913Z,141.55
2019-05-14T18:30:50.908Z,141.25
2019-05-14T18:33:18.745Z,140.97
2019-05-14T18:35:48.353Z,140.40
2019-05-14T18:38:15.401Z,139.43
2019-05-14T18:40:42.669Z,140.28
2019-05-14T18:43:11.062Z,138.82
2019-05-14T18:45:38.873Z,139.18
2019-05-14T18:48:09.435Z,140.40
2019-05-14T18:50:36.485Z,139.82
2019-05-14T18:53:03.553Z,139.57
2019-05-14T18:55:33.469Z,140.22
2019-05-14T18:58:00.781Z,138.37
2019-05-14T19:00:29.744Z,139.75
2019-05-14T19:03:01.599Z,140.05
2019-05-14T19:05:29.621Z,139.77
2019-05-14T19:08:00.530Z,137.12
2019-05-14T19:10:28.205Z,138.45
2019-05-14T19:12:55.527Z,140.65
2019-05-14T19:15:22.742Z,138.50
2019-05-14T19:17:50.395Z,137.97
2019-05-14T19:20:19.409Z,139.52
2019-05-14T19:22:49.032Z,139.95
2019-05-14T19:25:18.593Z,138.18
2019-05-14T19:27:49.450Z,139.92
2019-05-14T19:30:19.645Z,138.68
2019-05-14T19:32:48.562Z,138.52
2019-05-14T19:35:16.107Z,135.70
2019-05-14T19:37:48.715Z,138.65
2019-05-14T19:40:18.966Z,136.20
2019-05-14T19:42:52.160Z,135.80
2019-05-14T19:45:19.401Z,137.10
2019-05-14T19:47:49.384Z,136.12
2019-05-14T19:50:18.736Z,136.10
2019-05-14T19:52:48.773Z,137.60
2019-05-14T19:55:18.704Z,135.52
2019-05-14T19:57:46.013Z,136.50
2019-05-14T20:00:20.286Z,137.88
2019-05-14T20:02:51.084Z,138.90
2019-05-14T20:05:19.100Z,139.50
2019-05-14T20:07:53.408Z,139.22
2019-05-14T20:10:22.792Z,137.20
2019-05-14T20:12:49.860Z,135.78
2019-05-14T20:15:19.146Z,135.55
2019-05-14T20:17:48.931Z,135.93
2019-05-14T20:20:16.637Z,136.68
2019-05-14T20:22:46.071Z,136.92
2019-05-14T20:25:14.368Z,137.70
2019-05-14T20:27:41.648Z,136.15
2019-05-14T20:30:09.947Z,137.25
2019-05-14T20:32:38.187Z,135.52
2019-05-14T20:35:29.884Z,135.40
2019-05-14T20:37:42.630Z,137.50
2019-05-14T20:40:11.970Z,134.78
2019-05-14T20:42:39.592Z,135.75
2019-05-14T20:45:09.673Z,137.60
2019-05-14T20:47:39.143Z,136.25
2019-05-14T20:50:18.212Z,135.43
2019-05-14T20:52:51.718Z,136.62
2019-05-14T20:55:20.749Z,137.10
2019-05-14T20:57:49.262Z,134.30
2019-05-14T21:00:18.273Z,135.90
2019-05-14T21:02:45.766Z,136.55
2019-05-14T21:05:13.874Z,135.20
2019-05-14T21:07:45.022Z,136.40
2019-05-14T21:10:12.685Z,134.15
2019-05-14T21:12:39.857Z,135.78
2019-05-14T21:15:09.916Z,135.50
2019-05-14T21:17:37.771Z,136.12
2019-05-14T21:20:06.061Z,135.45
2019-05-14T21:22:34.950Z,137.60
2019-05-14T21:25:02.072Z,134.27
2019-05-14T21:27:40.909Z,135.45
2019-05-14T21:30:00.062Z,135.15
2019-05-14T21:32:28.328Z,135.30
2019-05-14T21:34:55.678Z,135.45
2019-05-14T21:37:22.737Z,134.43
2019-05-14T21:39:52.566Z,134.22
2019-05-14T21:42:19.458Z,133.60
2019-05-14T21:44:51.486Z,136.20
2019-05-14T21:47:19.127Z,135.10
2019-05-14T21:49:48.446Z,135.20
2019-05-14T21:52:18.005Z,134.82
2019-05-14T21:54:58.512Z,135.18
2019-05-14T21:57:28.446Z,135.07
2019-05-14T21:59:55.656Z,135.50
2019-05-14T22:02:27.435Z,135.82
2019-05-14T22:04:51.689Z,136.10
2019-05-14T22:07:20.122Z,135.75
2019-05-14T22:09:48.731Z,137.15
2019-05-14T22:12:15.991Z,136.40
2019-05-14T22:14:43.708Z,134.93
2019-05-14T22:17:11.372Z,134.15
2019-05-14T22:19:40.244Z,135.00
2019-05-14T22:22:08.001Z,135.12
2019-05-14T22:24:35.373Z,136.18
2019-05-14T22:27:02.403Z,138.10
2019-05-14T22:29:29.474Z,136.18
2019-05-14T22:31:58.758Z,135.97
2019-05-14T22:34:28.006Z,135.00
2019-05-14T22:36:54.903Z,133.75
2019-05-14T22:39:21.961Z,133.35
2019-05-14T22:41:50.984Z,133.37
2019-05-14T22:44:19.868Z,132.72
2019-05-14T22:46:49.044Z,134.12
2019-05-14T22:49:18.620Z,132.78
2019-05-14T22:51:45.625Z,132.65
2019-05-14T22:54:12.690Z,133.35
2019-05-14T22:56:39.789Z,133.35
2019-05-14T22:59:06.908Z,132.25
2019-05-14T23:01:34.574Z,132.97
2019-05-14T23:04:01.673Z,134.12
2019-05-14T23:06:30.776Z,132.55
2019-05-14T23:08:58.242Z,132.75
2019-05-14T23:11:28.849Z,132.93
2019-05-14T23:13:58.115Z,131.72
2019-05-14T23:16:34.406Z,132.25
2019-05-14T23:18:58.204Z,132.52
2019-05-14T23:21:25.310Z,132.45
2019-05-14T23:23:52.642Z,132.67
2019-05-14T23:26:19.779Z,131.95
2019-05-14T23:28:49.014Z,131.67
2019-05-14T23:31:16.969Z,132.12
2019-05-14T23:33:46.286Z,131.95
2019-05-14T23:36:13.898Z,132.30
2019-05-14T23:38:40.986Z,132.30
2019-05-14T23:41:08.864Z,131.93
2019-05-14T23:43:38.806Z,131.95
2019-05-14T23:46:05.167Z,131.78
2019-05-14T23:48:32.405Z,132.45
2019-05-14T23:50:59.539Z,131.18
2019-05-14T23:53:30.803Z,131.43
2019-05-14T23:55:59.702Z,131.65
2019-05-14T23:58:28.956Z,131.57
